Latest Weather Observations for St Lawrence

IDQ60801

Issued at 2:05 pm EST Thursday 21 August 2014 (issued every 30 minutes, with the page automatically refreshed every 10 minutes)

About weather observations | Map of weather stations | Latest weather observations for QLD | Other Formats
Station Details ID: 033210 Name: ST LAWRENCE Lat: -22.35 Lon: 149.52 Height: 9.19 m
Data from the previous 72 hours. | See also: Recent months at St Lawrence
Date/Time
EST
Temp
°C
App
Temp
°C
Dew
Point
Rel
Hum
%
Delta-T
°C
Wind Press
QNH
hPa
Press
MSL
hPa
Rain
since 9 am
mm
Dir
 
Spd
km/h
Gust
km/h
Spd
kts
Gust
kts
21/02:00pm 24.7 22.2 10.9 42 7.7 ENE 15 22 8 12 1016.8 1016.8 0.0
21/01:30pm 25.1 22.7 11.3 42 7.8 NE 15 26 8 14 1017.2 1017.2 0.0
21/01:00pm 24.4 21.3 10.3 41 7.8 ENE 17 24 9 13 1017.7 1017.7 0.0
21/12:30pm 23.7 21.3 11.4 46 6.9 ENE 15 26 8 14 1018.3 1018.3 0.0
21/12:00pm 24.0 22.9 12.0 47 6.8 E 9 17 5 9 1018.8 1018.8 0.0
21/11:30am 23.3 21.7 11.4 47 6.7 E 11 17 6 9 1019.4 1019.4 0.0
21/11:00am 22.8 22.0 13.0 54 5.6 SSE 9 17 5 9 1019.9 1019.9 0.0
21/10:30am 21.4 20.1 12.5 57 5.0 E 11 22 6 12 1020.2 1020.2 0.0
21/10:00am 21.0 19.8 12.7 59 4.7 E 11 17 6 9 1020.3 1020.3 0.0
21/09:30am 19.5 18.8 11.5 60 4.4 SSE 6 11 3 6 1020.5 1020.5 0.0
21/09:00am 17.9 17.8 12.1 69 3.2 S 4 7 2 4 1020.5 1020.5 0.0
21/08:30am 15.9 14.9 10.9 72 2.7 S 7 11 4 6 1020.6 1020.6 0.0
21/08:00am 14.3 13.3 10.9 80 1.8 S 7 9 4 5 1020.2 1020.2 0.0
21/07:30am 12.0 11.0 10.9 93 0.6 SW 7 13 4 7 1020.0 1020.0 0.0
21/07:00am 9.2 7.7 8.4 95 0.4 SSW 6 7 3 4 1019.5 1019.5 0.0
21/06:30am 8.4 6.5 7.6 95 0.4 SW 7 11 4 6 1019.3 1019.3 0.0
21/06:00am 9.1 7.3 7.9 92 0.6 SW 7 9 4 5 1018.9 1018.9 0.0
21/05:30am 11.5 9.0 9.6 88 1.0 S 13 19 7 10 1018.6 1018.6 0.0
21/05:00am 11.3 8.9 10.0 92 0.7 S 13 15 7 8 1018.6 1018.6 0.0
21/04:30am 9.4 7.8 8.6 95 0.4 S 7 11 4 6 1018.6 1018.6 0.0
21/04:00am 8.7 7.4 7.5 92 0.6 SSW 4 7 2 4 1018.7 1018.7 0.0
21/03:30am 9.1 7.5 8.0 93 0.5 SSW 6 6 3 3 1018.9 1018.9 0.0
21/03:00am 9.7 8.1 8.6 93 0.5 SSW 7 9 4 5 1019.0 1019.0 0.0
21/02:30am 10.3 9.0 9.1 92 0.6 SSW 6 9 3 5 1018.9 1018.9 0.0
21/02:00am 9.9 9.6 8.5 91 0.7 CALM 0 0 0 0 1019.3 1019.3 0.0
21/01:30am 10.6 9.2 8.9 89 0.8 SW 6 6 3 3 1019.4 1019.4 0.0
21/01:00am 10.6 9.2 8.9 89 0.8 SW 6 7 3 4 1019.8 1019.8 0.0
21/12:30am 10.4 9.0 8.7 89 0.8 SW 6 7 3 4 1019.9 1019.9 0.0
21/12:00am 10.7 10.4 8.5 86 1.1 SW 0 0 0 0 1020.0 1020.0 0.0
 
Date/Time
EST
Temp
°C
App
Temp
°C
Dew
Point
Rel
Hum
%
Delta-T
°C
Wind Press
QNH
hPa
Press
MSL
hPa
Rain
since 9 am
mm
Dir
 
Spd
km/h
Gust
km/h
Spd
kts
Gust
kts
20/11:30pm 11.7 10.4 9.1 84 1.3 SW 6 7 3 4 1020.0 1020.0 0.0
20/11:00pm 12.1 10.8 9.3 83 1.4 SW 6 9 3 5 1020.2 1020.2 0.0
20/10:30pm 12.1 10.7 9.5 84 1.3 WSW 7 9 4 5 1020.1 1020.1 0.0
20/10:00pm 12.3 12.3 9.7 84 1.3 CALM 0 0 0 0 1020.1 1020.1 0.0
20/09:30pm 12.4 11.2 9.6 83 1.4 WSW 6 7 3 4 1020.1 1020.1 0.0
20/09:00pm 13.2 13.1 9.6 79 1.8 CALM 0 0 0 0 1020.1 1020.1 0.0
20/08:30pm 14.2 14.3 10.0 76 2.2 CALM 0 0 0 0 1020.0 1020.0 0.0
20/08:00pm 14.9 15.0 10.1 73 2.5 CALM 0 0 0 0 1019.7 1019.7 0.0
20/07:30pm 14.9 14.9 9.9 72 2.6 CALM 0 0 0 0 1019.2 1019.2 0.0
20/07:00pm 17.2 16.1 10.8 66 3.4 NE 7 9 4 5 1018.7 1018.7 0.0
20/06:30pm 17.9 16.1 10.8 63 3.8 NNE 11 15 6 8 1018.1 1018.1 0.0
20/06:00pm 18.6 16.7 10.4 59 4.4 NE 11 17 6 9 1017.6 1017.6 0.0
20/05:30pm 19.6 16.8 10.0 54 5.1 NE 15 20 8 11 1017.4 1017.4 0.0
20/05:00pm 20.8 17.5 9.7 49 5.9 NE 17 22 9 12 1017.0 1017.0 0.0
20/04:30pm 22.8 19.3 5.3 32 8.7 NNE 13 19 7 10 1016.6 1016.6 0.0
20/04:00pm 23.0 18.8 5.9 33 8.6 NE 17 20 9 11 1016.3 1016.3 0.0
20/03:30pm 23.0 19.0 6.7 35 8.4 NNE 17 24 9 13 1016.3 1016.3 0.0
20/03:00pm 23.3 19.6 7.8 37 8.1 NNE 17 26 9 14 1016.1 1016.1 0.0
20/02:30pm 24.2 21.3 8.2 36 8.5 NNE 13 20 7 11 1016.3 1016.3 0.0
20/02:00pm 23.0 19.7 6.3 34 8.5 NE 13 20 7 11 1016.7 1016.7 0.0
20/01:30pm 23.1 20.2 6.4 34 8.5 ENE 11 20 6 11 1017.0 1017.0 0.0
20/01:00pm 22.7 20.7 7.3 37 8.0 NNE 7 15 4 8 1017.4 1017.4 0.0
20/12:30pm 22.6 19.5 7.2 37 8.0 NNE 13 19 7 10 1017.9 1017.9 0.0
20/12:00pm 23.0 19.9 5.4 32 8.8 SSE 11 17 6 9 1018.3 1018.3 0.0
20/11:30am 22.7 19.3 4.2 30 9.1 E 11 15 6 8 1018.8 1018.8 0.0
20/11:00am 22.0 18.9 5.4 34 8.2 S 11 19 6 10 1019.4 1019.4 0.0
20/10:30am 21.2 18.2 5.9 37 7.7 SE 11 19 6 10 1019.8 1019.8 0.0
20/10:00am 20.4 17.2 6.7 41 6.9 SSE 13 20 7 11 1019.9 1019.9 0.0
20/09:30am 19.2 16.0 7.0 45 6.2 S 13 22 7 12 1020.0 1020.0 0.0
20/09:00am 18.3 15.2 7.1 48 5.6 S 13 20 7 11 1020.1 1020.1 0.0
20/08:30am 17.1 14.0 7.2 52 4.9 S 13 19 7 10 1020.3 1020.3 0.0
20/08:00am 13.8 12.8 9.0 73 2.4 WSW 4 6 2 3 1020.1 1020.1 0.0
20/07:30am 11.1 9.4 7.6 79 1.7 WSW 6 7 3 4 1019.9 1019.9 0.0
20/07:00am 10.2 8.0 5.2 71 2.3 SW 6 9 3 5 1019.5 1019.5 0.0
20/06:30am 9.7 6.8 4.7 71 2.2 SW 9 11 5 6 1019.3 1019.3 0.0
20/06:00am 9.5 6.6 4.9 73 2.1 WSW 9 13 5 7 1019.2 1019.2 0.0
20/05:30am 7.7 6.6 5.2 84 1.1 CALM 0 0 0 0 1018.9 1018.9 0.0
20/05:00am 7.8 6.2 4.7 81 1.4 SW 2 7 1 4 1018.6 1018.6 0.0
20/04:30am 8.2 7.1 5.3 82 1.3 CALM 0 0 0 0 1018.4 1018.4 0.0
20/04:00am 8.2 7.2 5.5 83 1.2 CALM 0 0 0 0 1018.2 1018.2 0.0
20/03:30am 8.9 6.8 5.6 80 1.5 W 6 7 3 4 1018.0 1018.0 0.0
20/03:00am 11.7 8.7 4.0 59 3.4 S 9 11 5 6 1017.9 1017.9 0.0
20/02:30am 11.4 8.4 3.9 60 3.3 S 9 13 5 7 1017.9 1017.9 0.0
20/02:00am 10.9 7.8 3.5 60 3.2 S 9 13 5 7 1018.0 1018.0 0.0
20/01:30am 9.8 6.3 3.5 65 2.7 S 11 13 6 7 1017.9 1017.9 0.0
20/01:00am 9.6 7.3 5.0 73 2.1 SW 6 11 3 6 1017.9 1017.9 0.0
20/12:30am 8.4 7.2 4.8 78 1.6 CALM 0 0 0 0 1017.9 1017.9 0.0
20/12:00am 9.0 7.8 4.8 75 1.9 CALM 0 6 0 3 1018.0 1018.0 0.0
 
Date/Time
EST
Temp
°C
App
Temp
°C
Dew
Point
Rel
Hum
%
Delta-T
°C
Wind Press
QNH
hPa
Press
MSL
hPa
Rain
since 9 am
mm
Dir
 
Spd
km/h
Gust
km/h
Spd
kts
Gust
kts
19/11:30pm 9.6 7.8 5.2 74 2.0 S 4 9 2 5 1017.9 1017.9 0.0
19/11:00pm 10.7 9.3 5.5 70 2.4 SW 2 7 1 4 1017.9 1017.9 0.0
19/10:30pm 11.0 9.6 5.5 69 2.5 SW 2 7 1 4 1017.8 1017.8 0.0
19/10:00pm 10.5 9.7 6.6 77 1.8 CALM 0 2 0 1 1017.7 1017.7 0.0
19/09:30pm 11.9 11.1 6.6 70 2.5 CALM 0 0 0 0 1017.7 1017.7 0.0
19/09:00pm 12.0 10.6 7.3 73 2.3 WSW 4 9 2 5 1017.7 1017.7 0.0
19/08:30pm 13.0 11.5 8.5 74 2.2 SW 6 7 3 4 1017.5 1017.5 0.0
19/08:00pm 13.5 13.4 9.6 77 2.0 CALM 0 2 0 1 1017.2 1017.2 0.0
19/07:30pm 14.8 13.5 9.8 72 2.6 S 7 9 4 5 1016.9 1016.9 0.0
19/07:00pm 15.8 14.7 9.9 68 3.1 E 6 7 3 4 1016.4 1016.4 0.0
19/06:30pm 16.9 15.6 9.1 60 4.0 ENE 6 7 3 4 1016.0 1016.0 0.0
19/06:00pm 19.3 17.9 8.9 51 5.4 ENE 6 11 3 6 1015.6 1015.6 0.0
19/05:30pm 23.2 19.8 -0.3 21 10.6 SW 7 9 4 5 1015.2 1015.2 0.0
19/05:00pm 24.4 20.2 -0.7 19 11.3 SW 11 19 6 10 1014.8 1014.8 0.0
19/04:30pm 25.1 21.0 -0.1 19 11.6 WSW 11 19 6 10 1014.6 1014.6 0.0
19/04:00pm 25.5 21.5 0.2 19 11.7 SW 11 19 6 10 1014.3 1014.3 0.0
19/03:30pm 25.5 20.8 -2.1 16 12.3 W 13 20 7 11 1014.2 1014.2 0.0
19/03:00pm 25.7 20.0 -0.4 18 12.0 W 19 28 10 15 1014.3 1014.3 0.0
19/02:30pm 25.5 21.4 -0.5 18 11.9 SW 11 19 6 10 1014.5 1014.5 0.0
19/02:00pm 24.9 20.7 -1.0 18 11.7 WSW 11 19 6 10 1014.9 1014.9 0.0
19/01:30pm 25.3 21.2 0.0 19 11.7 W 11 19 6 10 1015.2 1015.2 0.0
19/01:00pm 24.4 21.0 1.9 23 10.7 WSW 9 20 5 11 1015.7 1015.7 0.0
19/12:30pm 23.7 20.4 2.5 25 10.1 NW 9 17 5 9 1016.4 1016.4 0.0
19/12:00pm 22.8 20.4 4.3 30 9.1 ENE 6 9 3 5 1017.1 1017.1 0.0
19/11:30am 22.5 20.1 4.5 31 8.8 N 6 13 3 7 1017.7 1017.7 0.0
19/11:00am 21.5 18.4 5.4 35 8.0 S 11 19 6 10 1018.4 1018.4 0.0
19/10:30am 20.3 16.4 5.5 38 7.3 SSE 15 28 8 15 1018.7 1018.7 0.0
19/10:00am 19.7 15.7 5.0 38 7.1 S 15 24 8 13 1019.2 1019.2 0.0
19/09:30am 18.6 14.0 5.5 42 6.4 S 19 28 10 15 1019.5 1019.5 0.0
19/09:00am 17.9 14.7 5.2 43 6.1 S 11 20 6 11 1019.7 1019.7 0.0
19/08:30am 16.8 15.0 7.2 53 4.8 SSW 6 9 3 5 1019.6 1019.6 0.0
19/08:00am 14.1 12.3 7.2 63 3.4 SW 6 7 3 4 1019.5 1019.5 0.0
19/07:30am 12.4 10.0 5.3 62 3.3 SW 7 9 4 5 1019.2 1019.2 0.0
19/07:00am 11.0 8.6 5.1 67 2.7 WSW 7 9 4 5 1018.8 1018.8 0.0
19/06:30am 10.4 7.9 5.0 69 2.4 WSW 7 9 4 5 1018.5 1018.5 0.0
19/06:00am 9.1 6.8 5.5 78 1.6 SW 7 9 4 5 1018.1 1018.1 0.0
19/05:30am 10.0 9.1 6.2 77 1.8 CALM 0 0 0 0 1017.8 1017.8 0.0
19/05:00am 8.5 6.7 5.4 81 1.4 SSW 4 9 2 5 1017.5 1017.5 0.0
19/04:30am 9.6 7.3 5.0 73 2.1 S 6 9 3 5 1017.2 1017.2 0.0
19/04:00am 11.7 9.4 5.6 66 2.8 SSW 7 9 4 5 1016.9 1016.9 0.0
19/03:30am 10.8 8.7 6.6 75 2.0 WSW 7 7 4 4 1016.9 1016.9 0.0
19/03:00am 10.3 9.0 7.5 83 1.3 SW 4 7 2 4 1016.9 1016.9 0.0
19/02:30am 8.7 7.9 6.3 85 1.1 CALM 0 0 0 0 1016.8 1016.8 0.0
19/02:00am 10.0 9.0 7.4 84 1.2 SW 2 9 1 5 1016.7 1016.7 0.0
19/01:30am 9.7 9.1 7.6 87 1.0 CALM 0 0 0 0 1016.7 1016.7 0.0
19/01:00am 9.9 9.4 7.8 87 1.0 CALM 0 0 0 0 1016.7 1016.7 0.0
19/12:30am 10.5 9.7 8.1 85 1.2 S 2 6 1 3 1016.7 1016.7 0.0
19/12:00am 10.4 10.0 8.2 86 1.1 CALM 0 0 0 0 1016.7 1016.7 0.0
 
Date/Time
EST
Temp
°C
App
Temp
°C
Dew
Point
Rel
Hum
%
Delta-T
°C
Wind Press
QNH
hPa
Press
MSL
hPa
Rain
since 9 am
mm
Dir
 
Spd
km/h
Gust
km/h
Spd
kts
Gust
kts
18/11:30pm 11.1 10.8 8.7 85 1.2 CALM 0 0 0 0 1016.6 1016.6 0.0
18/11:00pm 11.1 10.8 8.7 85 1.2 CALM 0 0 0 0 1016.7 1016.7 0.0
18/10:30pm 11.6 11.4 9.0 84 1.3 CALM 0 0 0 0 1016.6 1016.6 0.0
18/10:00pm 12.3 12.0 8.8 79 1.7 CALM 0 0 0 0 1016.6 1016.6 0.0
18/09:30pm 13.1 12.7 8.4 73 2.3 CALM 0 0 0 0 1016.5 1016.5 0.0
18/09:00pm 14.0 12.9 8.4 69 2.8 NE 4 7 2 4 1016.4 1016.4 0.0
18/08:30pm 13.9 12.6 7.7 66 3.1 SSW 4 6 2 3 1016.1 1016.1 0.0
18/08:00pm 15.7 15.1 7.2 57 4.2 CALM 0 0 0 0 1015.9 1015.9 0.0
18/07:30pm 15.8 15.3 7.8 59 4.0 CALM 0 0 0 0 1015.6 1015.6 0.0
18/07:00pm 17.9 15.6 5.8 45 5.9 SSW 7 13 4 7 1015.2 1015.2 0.0
18/06:30pm 18.8 16.7 6.0 43 6.3 SSW 6 7 3 4 1014.7 1014.7 0.0
18/06:00pm 21.1 18.7 5.1 35 7.9 SW 7 9 4 5 1014.3 1014.3 0.0
18/05:30pm 23.1 20.1 4.1 29 9.3 WSW 9 17 5 9 1014.0 1014.0 0.0
18/05:00pm 24.0 19.9 4.4 28 9.7 WSW 15 24 8 13 1013.7 1013.7 0.0
18/04:30pm 24.6 20.5 4.4 27 10.1 WSW 15 24 8 13 1013.5 1013.5 0.0
18/04:00pm 24.7 20.7 5.0 28 9.9 W 15 24 8 13 1013.2 1013.2 0.0
18/03:30pm 24.8 20.5 5.1 28 9.9 WSW 17 22 9 12 1013.1 1013.1 0.0
18/03:00pm 24.8 19.5 5.1 28 9.9 W 22 26 12 14 1013.1 1013.1 0.0
18/02:30pm 24.4 20.5 5.2 29 9.7 WSW 15 28 8 15 1013.5 1013.5 0.0

Other Formats:

Comma delimited format used in spreadsheet applications
http://www.bom.gov.au/fwo/IDQ60801/IDQ60801.95369.axf

JavaScript Object Notation format (JSON) in row-major order
http://www.bom.gov.au/fwo/IDQ60801/IDQ60801.95369.json